createdAt,value
2018-11-04T00:01:57.061Z,52.20
2018-11-04T00:04:24.523Z,52.20
2018-11-04T00:06:52.146Z,49.20
2018-11-04T00:09:19.745Z,54.27
2018-11-04T00:11:47.430Z,56.83
2018-11-04T00:14:15.121Z,51.97
2018-11-04T00:16:42.682Z,52.00
2018-11-04T00:19:10.413Z,55.17
2018-11-04T00:21:38.014Z,48.90
2018-11-04T00:24:05.683Z,55.43
2018-11-04T00:26:33.351Z,53.20
2018-11-04T00:29:02.530Z,56.60
2018-11-04T00:31:31.084Z,52.87
2018-11-04T00:34:01.513Z,49.80
2018-11-04T00:36:29.097Z,53.17
2018-11-04T00:38:57.994Z,53.20
2018-11-04T00:41:25.690Z,63.20
2018-11-04T00:43:53.474Z,50.83
2018-11-04T00:46:20.986Z,56.03
2018-11-04T00:48:48.757Z,58.83
2018-11-04T00:51:16.293Z,51.47
2018-11-04T00:53:43.890Z,58.13
2018-11-04T00:56:11.540Z,56.50
2018-11-04T00:58:39.020Z,56.17
2018-11-04T01:01:06.611Z,52.23
2018-11-04T01:03:34.124Z,54.60
2018-11-04T01:06:01.621Z,59.80
2018-11-04T01:08:29.109Z,54.40
2018-11-04T01:10:56.763Z,58.97
2018-11-04T01:13:24.262Z,58.57
2018-11-04T01:15:51.722Z,55.93
2018-11-04T01:18:19.251Z,53.00
2018-11-04T01:20:46.777Z,51.20
2018-11-04T01:23:14.286Z,51.40
2018-11-04T01:25:41.840Z,51.70
2018-11-04T01:28:09.296Z,56.77
2018-11-04T01:30:36.858Z,69.43
2018-11-04T01:33:04.864Z,61.27
2018-11-04T01:35:32.392Z,57.97
2018-11-04T01:37:59.920Z,53.23
2018-11-04T01:40:27.391Z,60.90
2018-11-04T01:42:54.863Z,61.00
2018-11-04T01:45:22.347Z,61.10
2018-11-04T01:47:49.916Z,56.70
2018-11-04T01:50:17.433Z,60.33
2018-11-04T01:52:44.935Z,58.27
2018-11-04T01:55:12.837Z,70.87
2018-11-04T01:57:40.333Z,73.27
2018-11-04T02:00:12.715Z,59.73
2018-11-04T02:02:40.771Z,63.00
2018-11-04T02:05:09.135Z,63.53
2018-11-04T02:07:36.735Z,63.00
2018-11-04T02:10:05.261Z,61.50
2018-11-04T02:12:32.778Z,65.43
2018-11-04T02:15:00.307Z,55.87
2018-11-04T02:17:27.780Z,67.30
2018-11-04T02:19:55.379Z,54.90
2018-11-04T02:22:22.887Z,54.20
2018-11-04T02:24:50.426Z,58.20
2018-11-04T02:27:18.083Z,58.87
2018-11-04T02:29:45.628Z,64.53
2018-11-04T02:32:13.130Z,62.07
2018-11-04T02:34:40.646Z,68.33
2018-11-04T02:37:08.163Z,58.80
2018-11-04T02:39:35.673Z,63.00
2018-11-04T02:42:03.197Z,56.30
2018-11-04T02:44:30.716Z,55.87
2018-11-04T02:46:58.363Z,59.27
2018-11-04T02:49:25.803Z,54.63
2018-11-04T02:51:53.297Z,63.90
2018-11-04T02:54:20.870Z,56.27
2018-11-04T02:56:48.374Z,63.70
2018-11-04T02:59:15.890Z,55.87
2018-11-04T03:01:43.409Z,55.67
2018-11-04T03:04:10.936Z,60.30
2018-11-04T03:06:38.434Z,56.47
2018-11-04T03:09:07.839Z,58.13
2018-11-04T03:11:35.465Z,63.03
2018-11-04T03:14:02.958Z,54.20
2018-11-04T03:16:30.486Z,72.10
2018-11-04T03:18:58.976Z,60.83
2018-11-04T03:21:26.518Z,56.30
2018-11-04T03:23:54.078Z,60.60
2018-11-04T03:26:21.580Z,54.17
2018-11-04T03:28:49.105Z,54.97
2018-11-04T03:31:16.628Z,61.07
2018-11-04T03:33:44.151Z,70.00
2018-11-04T03:36:11.677Z,61.57
2018-11-04T03:38:39.167Z,63.00
2018-11-04T03:41:06.760Z,58.03
2018-11-04T03:43:34.273Z,58.47
2018-11-04T03:46:01.819Z,75.60
2018-11-04T03:48:29.300Z,65.00
2018-11-04T03:50:56.790Z,60.37
2018-11-04T03:53:24.260Z,61.63
2018-11-04T03:55:51.768Z,59.77
2018-11-04T03:58:19.386Z,64.67
2018-11-04T04:00:46.884Z,63.50
2018-11-04T04:03:14.373Z,63.33
2018-11-04T04:05:41.942Z,64.33
2018-11-04T04:08:09.448Z,61.53
2018-11-04T04:10:37.068Z,67.80
2018-11-04T04:14:34.412Z,65.70
2018-11-04T04:17:01.967Z,58.63
2018-11-04T04:19:29.473Z,64.13
2018-11-04T04:21:57.048Z,62.70
2018-11-04T04:24:24.540Z,73.80
2018-11-04T04:26:52.085Z,66.13
2018-11-04T04:29:19.554Z,62.37
2018-11-04T04:31:47.052Z,65.93
2018-11-04T04:34:14.583Z,59.27
2018-11-04T04:36:42.126Z,69.17
2018-11-04T04:39:10.485Z,65.10
2018-11-04T04:41:38.003Z,62.73
2018-11-04T04:44:05.576Z,62.17
2018-11-04T04:46:33.093Z,63.03
2018-11-04T04:49:00.671Z,67.87
2018-11-04T04:51:28.225Z,63.83
2018-11-04T04:53:55.743Z,71.43
2018-11-04T04:56:23.308Z,63.70
2018-11-04T04:58:50.808Z,65.80
2018-11-04T05:01:18.354Z,68.43
2018-11-04T05:03:45.838Z,64.53
2018-11-04T05:06:13.444Z,64.07
2018-11-04T05:08:41.001Z,63.67
2018-11-04T05:11:08.580Z,68.80
2018-11-04T05:13:36.239Z,75.87
2018-11-04T05:16:03.882Z,72.80
2018-11-04T05:18:31.504Z,72.37
2018-11-04T05:20:59.104Z,67.67
2018-11-04T05:23:26.836Z,67.13
2018-11-04T05:25:54.427Z,71.30
2018-11-04T05:28:21.983Z,87.83
2018-11-04T05:30:49.547Z,68.17
2018-11-04T05:33:17.108Z,70.57
2018-11-04T05:35:44.921Z,65.23
2018-11-04T05:38:12.711Z,73.27
2018-11-04T05:40:40.593Z,73.30
2018-11-04T05:43:09.416Z,74.43
2018-11-04T05:45:37.026Z,70.27
2018-11-04T05:48:06.388Z,83.47
2018-11-04T05:50:33.917Z,72.13
2018-11-04T05:53:02.927Z,69.13
2018-11-04T05:55:30.628Z,75.27
2018-11-04T05:57:58.388Z,66.83
2018-11-04T06:00:25.926Z,73.20
2018-11-04T06:02:53.435Z,71.97
2018-11-04T06:05:20.887Z,65.70
2018-11-04T06:07:48.605Z,67.77
2018-11-04T06:10:16.180Z,70.67
2018-11-04T06:12:43.710Z,71.63
2018-11-04T06:15:11.284Z,73.53
2018-11-04T06:17:39.037Z,74.60
2018-11-04T06:20:07.926Z,70.63
2018-11-04T06:22:35.435Z,73.00
2018-11-04T06:25:03.137Z,71.00
2018-11-04T06:27:30.679Z,82.67
2018-11-04T06:29:58.184Z,71.13
2018-11-04T06:32:25.673Z,70.10
2018-11-04T06:34:53.191Z,72.33
2018-11-04T06:37:20.691Z,73.17
2018-11-04T06:39:48.196Z,73.30
2018-11-04T06:42:15.774Z,71.93
2018-11-04T06:44:43.403Z,73.47
2018-11-04T06:47:11.058Z,73.67
2018-11-04T06:49:39.654Z,77.57
2018-11-04T06:52:07.295Z,84.60
2018-11-04T06:54:34.903Z,74.60
2018-11-04T06:57:03.327Z,77.43
2018-11-04T06:59:30.908Z,76.53
2018-11-04T07:01:58.555Z,86.60
2018-11-04T07:04:28.471Z,86.13
2018-11-04T07:06:56.325Z,93.50
2018-11-04T07:09:23.915Z,85.40
2018-11-04T07:11:51.561Z,99.33
2018-11-04T07:14:25.094Z,93.63
2018-11-04T07:16:52.679Z,91.93
2018-11-04T07:19:20.219Z,94.70
2018-11-04T07:21:47.890Z,89.87
2018-11-04T07:24:15.458Z,98.70
2018-11-04T07:26:42.988Z,106.33
2018-11-04T07:29:10.701Z,94.20
2018-11-04T07:31:38.258Z,113.70
2018-11-04T07:34:06.048Z,99.83
2018-11-04T07:36:33.792Z,110.70
2018-11-04T07:39:01.433Z,100.43
2018-11-04T07:41:28.960Z,102.70
2018-11-04T07:43:56.522Z,103.90
2018-11-04T07:46:24.116Z,107.00
2018-11-04T07:48:51.628Z,109.40
2018-11-04T07:51:19.314Z,122.33
2018-11-04T07:53:46.951Z,124.13
2018-11-04T07:56:15.112Z,107.57
2018-11-04T07:58:42.631Z,111.23
2018-11-04T08:01:10.147Z,132.33
2018-11-04T08:03:37.693Z,115.93
2018-11-04T08:06:05.411Z,119.17
2018-11-04T08:08:32.926Z,127.97
2018-11-04T08:11:00.462Z,121.13
2018-11-04T08:13:28.010Z,129.33
2018-11-04T08:15:55.568Z,146.73
2018-11-04T08:18:23.057Z,140.70
2018-11-04T08:20:51.594Z,136.70
2018-11-04T08:23:19.084Z,150.00
2018-11-04T08:25:46.584Z,136.27
2018-11-04T08:28:14.224Z,146.47
2018-11-04T08:30:41.761Z,140.47
2018-11-04T08:33:09.318Z,144.43
2018-11-04T08:35:36.866Z,156.93
2018-11-04T08:38:04.521Z,150.40
2018-11-04T08:40:32.312Z,149.73
2018-11-04T08:42:59.744Z,152.93
2018-11-04T08:45:27.243Z,145.20
2018-11-04T08:47:54.819Z,147.73
2018-11-04T08:50:22.353Z,143.07
2018-11-04T08:52:49.976Z,128.87
2018-11-04T08:55:17.462Z,151.20
2018-11-04T08:57:44.983Z,146.90
2018-11-04T09:00:14.058Z,146.50
2018-11-04T09:02:43.371Z,150.07
2018-11-04T09:05:10.933Z,132.37
2018-11-04T09:07:38.657Z,133.97
2018-11-04T09:10:12.064Z,122.67
2018-11-04T09:12:39.695Z,112.93
2018-11-04T09:15:08.176Z,119.80
2018-11-04T09:17:35.674Z,122.03
2018-11-04T09:20:03.624Z,115.17
2018-11-04T09:22:31.141Z,113.47
2018-11-04T09:24:58.722Z,107.37
2018-11-04T09:27:26.275Z,121.90
2018-11-04T09:29:53.745Z,116.27
2018-11-04T09:32:21.417Z,108.40
2018-11-04T09:34:49.037Z,114.33
2018-11-04T09:37:16.529Z,117.57
2018-11-04T09:39:44.192Z,104.83
2018-11-04T09:42:11.637Z,105.23
2018-11-04T09:44:39.181Z,111.87
2018-11-04T09:47:06.686Z,116.03
2018-11-04T09:49:34.170Z,105.17
2018-11-04T09:52:01.836Z,100.90
2018-11-04T09:54:29.312Z,89.60
2018-11-04T09:56:56.977Z,92.60
2018-11-04T09:59:24.462Z,91.03
2018-11-04T10:01:52.043Z,95.83
2018-11-04T10:04:19.557Z,97.83
2018-11-04T10:06:47.071Z,97.83
2018-11-04T10:09:14.644Z,100.03
2018-11-04T10:11:42.125Z,92.17
2018-11-04T10:14:09.619Z,92.33
2018-11-04T10:16:37.511Z,86.90
2018-11-04T10:19:05.173Z,90.30
2018-11-04T10:21:32.794Z,90.60
2018-11-04T10:24:00.387Z,94.67
2018-11-04T10:26:28.061Z,85.87
2018-11-04T10:28:55.733Z,87.77
2018-11-04T10:31:23.199Z,82.20
2018-11-04T10:33:50.725Z,82.87
2018-11-04T10:36:18.270Z,83.87
2018-11-04T10:38:45.750Z,87.20
2018-11-04T10:41:13.317Z,80.43
2018-11-04T10:43:40.842Z,74.67
2018-11-04T10:46:08.311Z,77.77
2018-11-04T10:48:35.913Z,83.40
2018-11-04T10:51:03.426Z,86.77
2018-11-04T10:53:30.880Z,79.60
2018-11-04T10:55:58.472Z,83.20
2018-11-04T10:58:25.964Z,91.37
2018-11-04T11:00:59.200Z,88.53
2018-11-04T11:03:26.730Z,77.53
2018-11-04T11:05:56.009Z,82.30
2018-11-04T11:08:23.617Z,76.60
2018-11-04T11:10:51.172Z,72.33
2018-11-04T11:13:18.689Z,75.83
2018-11-04T11:15:46.374Z,69.67
2018-11-04T11:18:13.903Z,68.73
2018-11-04T11:20:42.405Z,72.87
2018-11-04T11:23:09.947Z,77.33
2018-11-04T11:25:37.437Z,68.57
2018-11-04T11:28:05.031Z,69.97
2018-11-04T11:30:32.557Z,70.07
2018-11-04T11:33:00.126Z,66.97
2018-11-04T11:35:27.604Z,71.80
2018-11-04T11:37:55.262Z,75.00
2018-11-04T11:40:22.794Z,71.07
2018-11-04T11:42:50.283Z,80.90
2018-11-04T11:45:17.809Z,73.33
2018-11-04T11:47:45.307Z,77.13
2018-11-04T11:50:12.775Z,70.63
2018-11-04T11:52:40.345Z,70.03
2018-11-04T11:55:08.260Z,67.83
2018-11-04T11:57:35.928Z,71.37
2018-11-04T12:00:05.199Z,85.97
2018-11-04T12:02:32.675Z,72.60
2018-11-04T12:05:00.205Z,76.17
2018-11-04T12:07:27.726Z,77.60
2018-11-04T12:09:55.201Z,70.87
2018-11-04T12:12:22.760Z,70.90
2018-11-04T12:14:50.246Z,68.77
2018-11-04T12:17:17.783Z,71.10
2018-11-04T12:19:45.349Z,71.70
2018-11-04T12:22:12.918Z,64.20
2018-11-04T12:24:40.471Z,75.20
2018-11-04T12:27:08.076Z,77.63
2018-11-04T12:29:35.590Z,72.93
2018-11-04T12:32:03.186Z,79.63
2018-11-04T12:34:30.652Z,79.37
2018-11-04T12:36:58.137Z,79.30
2018-11-04T12:39:25.650Z,78.50
2018-11-04T12:41:53.093Z,69.80
2018-11-04T12:44:20.601Z,75.53
2018-11-04T12:46:48.135Z,81.13
2018-11-04T12:49:15.635Z,74.23
2018-11-04T12:51:43.199Z,78.20
2018-11-04T12:54:10.713Z,75.70
2018-11-04T12:56:38.294Z,74.27
2018-11-04T12:59:05.793Z,76.47
2018-11-04T13:01:33.471Z,77.60
2018-11-04T13:04:00.945Z,79.87
2018-11-04T13:06:28.406Z,78.83
2018-11-04T13:08:55.938Z,74.13
2018-11-04T13:11:23.442Z,82.50
2018-11-04T13:13:51.110Z,80.30
2018-11-04T13:16:19.699Z,81.27
2018-11-04T13:18:47.257Z,83.47
2018-11-04T13:21:14.898Z,86.43
2018-11-04T13:23:42.416Z,77.93
2018-11-04T13:26:10.001Z,79.03
2018-11-04T13:28:37.597Z,81.93
2018-11-04T13:31:05.269Z,80.40
2018-11-04T13:33:32.855Z,76.87
2018-11-04T13:36:00.462Z,80.90
2018-11-04T13:38:27.956Z,78.60
2018-11-04T13:40:55.474Z,78.50
2018-11-04T13:43:23.061Z,80.73
2018-11-04T13:45:50.533Z,85.17
2018-11-04T13:48:18.082Z,87.27
2018-11-04T13:50:45.620Z,85.33
2018-11-04T13:53:13.248Z,82.67
2018-11-04T13:55:40.750Z,79.77
2018-11-04T13:58:08.332Z,91.17
2018-11-04T14:00:35.821Z,85.67
2018-11-04T14:03:03.422Z,79.73
2018-11-04T14:05:31.040Z,89.30
2018-11-04T14:07:58.634Z,83.00
2018-11-04T14:10:26.188Z,82.37
2018-11-04T14:12:53.850Z,89.57
2018-11-04T14:15:21.256Z,83.23
2018-11-04T14:17:48.940Z,89.60
2018-11-04T14:20:16.465Z,81.47
2018-11-04T14:22:43.980Z,84.60
2018-11-04T14:25:12.174Z,88.70
2018-11-04T14:27:39.781Z,88.87
2018-11-04T14:30:09.322Z,89.93
2018-11-04T14:32:36.835Z,420.70
2018-11-04T14:35:05.601Z,80.80
2018-11-04T14:37:33.094Z,82.80
2018-11-04T14:40:00.629Z,83.67
2018-11-04T14:42:28.124Z,79.37
2018-11-04T14:44:55.611Z,79.13
2018-11-04T14:47:23.171Z,84.23
2018-11-04T14:49:50.697Z,89.47
2018-11-04T14:52:19.250Z,87.70
2018-11-04T14:54:46.760Z,87.37
2018-11-04T14:57:14.363Z,81.43
2018-11-04T14:59:41.894Z,86.53
2018-11-04T15:02:09.358Z,81.10
2018-11-04T15:04:36.875Z,81.30
2018-11-04T15:07:05.231Z,84.90
2018-11-04T15:09:32.728Z,88.43
2018-11-04T15:12:00.290Z,98.23
2018-11-04T15:14:27.885Z,81.83
2018-11-04T15:16:55.405Z,92.90
2018-11-04T15:19:22.999Z,96.03
2018-11-04T15:21:50.536Z,90.43
2018-11-04T15:24:18.088Z,90.97
2018-11-04T15:26:45.583Z,81.30
2018-11-04T15:29:13.275Z,90.00
2018-11-04T15:31:40.760Z,82.97
2018-11-04T15:34:08.264Z,82.63
2018-11-04T15:36:35.811Z,82.93
2018-11-04T15:39:05.131Z,90.13
2018-11-04T15:41:32.625Z,90.40
2018-11-04T15:44:00.144Z,84.67
2018-11-04T15:46:27.664Z,87.37
2018-11-04T15:48:55.171Z,84.07
2018-11-04T15:51:22.732Z,85.73
2018-11-04T15:53:50.236Z,84.20
2018-11-04T15:56:17.708Z,84.07
2018-11-04T15:58:45.187Z,85.23
2018-11-04T16:01:12.681Z,86.90
2018-11-04T16:03:40.436Z,88.00
2018-11-04T16:06:08.042Z,91.37
2018-11-04T16:08:35.576Z,91.17
2018-11-04T16:11:03.240Z,86.23
2018-11-04T16:13:30.825Z,82.17
2018-11-04T16:15:58.334Z,85.43
2018-11-04T16:18:25.830Z,86.20
2018-11-04T16:20:53.334Z,83.50
2018-11-04T16:23:20.983Z,85.30
2018-11-04T16:25:48.496Z,86.43
2018-11-04T16:28:16.114Z,82.27
2018-11-04T16:30:43.601Z,85.80
2018-11-04T16:33:11.131Z,89.10
2018-11-04T16:35:38.661Z,88.77
2018-11-04T16:38:06.165Z,89.27
2018-11-04T16:40:33.651Z,94.07
2018-11-04T16:43:01.135Z,90.40
2018-11-04T16:45:28.719Z,90.57
2018-11-04T16:47:56.212Z,97.10
2018-11-04T16:50:23.697Z,91.30
2018-11-04T16:52:51.186Z,95.90
2018-11-04T16:55:18.803Z,88.47
2018-11-04T16:57:46.313Z,87.83
2018-11-04T17:00:13.843Z,100.90
2018-11-04T17:02:41.365Z,91.10
2018-11-04T17:05:10.189Z,91.90
2018-11-04T17:07:37.710Z,95.73
2018-11-04T17:10:06.243Z,91.43
2018-11-04T17:12:33.786Z,96.53
2018-11-04T17:15:01.447Z,87.63
2018-11-04T17:17:28.964Z,94.60
2018-11-04T17:19:56.586Z,92.80
2018-11-04T17:22:24.147Z,88.77
2018-11-04T17:24:51.649Z,94.00
2018-11-04T17:27:19.250Z,90.00
2018-11-04T17:29:46.856Z,95.53
2018-11-04T17:32:14.324Z,93.63
2018-11-04T17:34:42.032Z,93.97
2018-11-04T17:37:09.884Z,94.60
2018-11-04T17:39:37.539Z,94.70
2018-11-04T17:42:05.295Z,96.70
2018-11-04T17:44:32.843Z,93.63
2018-11-04T17:47:00.269Z,91.83
2018-11-04T17:49:27.921Z,91.30
2018-11-04T17:51:55.474Z,99.03
2018-11-04T17:54:23.005Z,94.87
2018-11-04T17:56:50.599Z,99.90
2018-11-04T17:59:18.108Z,88.50
2018-11-04T18:01:45.589Z,100.93
2018-11-04T18:04:13.191Z,90.20
2018-11-04T18:06:40.783Z,96.20
2018-11-04T18:09:08.628Z,97.97
2018-11-04T18:11:36.107Z,98.50
2018-11-04T18:14:03.649Z,97.93
2018-11-04T18:16:31.322Z,92.30
2018-11-04T18:18:58.799Z,89.27
2018-11-04T18:21:26.329Z,92.10
2018-11-04T18:23:53.838Z,89.93
2018-11-04T18:26:21.429Z,90.83
2018-11-04T18:28:48.944Z,92.07
2018-11-04T18:31:16.430Z,95.50
2018-11-04T18:33:43.924Z,85.50
2018-11-04T18:36:11.385Z,90.97
2018-11-04T18:38:38.894Z,99.57
2018-11-04T18:41:06.444Z,97.70
2018-11-04T18:43:33.919Z,98.80
2018-11-04T18:46:01.454Z,103.33
2018-11-04T18:48:29.051Z,90.93
2018-11-04T18:50:56.549Z,94.13
2018-11-04T18:53:24.075Z,87.00
2018-11-04T18:55:51.584Z,88.50
2018-11-04T18:58:19.064Z,90.20
2018-11-04T19:00:46.630Z,83.80
2018-11-04T19:03:14.135Z,94.40
2018-11-04T19:05:41.781Z,90.00
2018-11-04T19:08:09.400Z,95.37
2018-11-04T19:10:36.957Z,84.90
2018-11-04T19:13:04.576Z,85.67
2018-11-04T19:15:32.120Z,95.33
2018-11-04T19:17:59.800Z,83.37
2018-11-04T19:20:27.612Z,95.23
2018-11-04T19:22:55.285Z,87.00
2018-11-04T19:25:23.036Z,96.33
2018-11-04T19:27:50.516Z,88.20
2018-11-04T19:30:18.452Z,86.50
2018-11-04T19:32:46.172Z,92.93
2018-11-04T19:35:14.466Z,94.57
2018-11-04T19:37:42.025Z,90.90
2018-11-04T19:40:10.727Z,94.50
2018-11-04T19:42:38.705Z,90.17
2018-11-04T19:45:06.659Z,90.70
2018-11-04T19:47:34.193Z,87.60
2018-11-04T19:50:02.130Z,88.40
2018-11-04T19:52:29.632Z,86.40
2018-11-04T19:54:57.202Z,89.23
2018-11-04T19:57:28.235Z,81.27
2018-11-04T19:59:56.393Z,89.40
2018-11-04T20:02:23.886Z,94.30
2018-11-04T20:04:51.383Z,89.83
2018-11-04T20:07:18.892Z,92.73
2018-11-04T20:09:46.482Z,93.27
2018-11-04T20:12:19.632Z,102.13
2018-11-04T20:14:47.296Z,96.60
2018-11-04T20:17:14.918Z,92.30
2018-11-04T20:19:48.094Z,89.33
2018-11-04T20:22:15.716Z,88.77
2018-11-04T20:24:49.002Z,95.50
2018-11-04T20:27:16.527Z,95.87
2018-11-04T20:29:44.068Z,91.10
2018-11-04T20:32:17.270Z,89.93
2018-11-04T20:34:44.819Z,94.17
2018-11-04T20:37:12.329Z,98.53
2018-11-04T20:39:46.550Z,91.87
2018-11-04T20:42:14.092Z,95.17
2018-11-04T20:44:45.143Z,96.57
2018-11-04T20:47:12.915Z,98.03
2018-11-04T20:49:46.100Z,96.77
2018-11-04T20:52:13.879Z,95.80
2018-11-04T20:54:41.428Z,100.53
2018-11-04T20:57:14.715Z,114.37
2018-11-04T20:59:42.242Z,109.40
2018-11-04T21:02:09.781Z,99.80
2018-11-04T21:04:37.320Z,96.50
2018-11-04T21:07:05.275Z,97.23
2018-11-04T21:09:33.158Z,96.40
2018-11-04T21:12:00.670Z,98.30
2018-11-04T21:14:28.426Z,104.53
2018-11-04T21:16:55.931Z,96.30
2018-11-04T21:19:23.400Z,96.47
2018-11-04T21:21:50.954Z,106.13
2018-11-04T21:24:18.504Z,104.63
2018-11-04T21:26:46.075Z,100.27
2018-11-04T21:29:13.799Z,105.27
2018-11-04T21:31:42.387Z,108.63
2018-11-04T21:34:10.156Z,106.43
2018-11-04T21:36:37.766Z,104.57
2018-11-04T21:39:07.812Z,104.70
2018-11-04T21:41:35.325Z,98.13
2018-11-04T21:44:03.040Z,96.97
2018-11-04T21:46:30.442Z,108.23
2018-11-04T21:48:57.910Z,103.87
2018-11-04T21:51:25.439Z,107.73
2018-11-04T21:53:52.948Z,108.87
2018-11-04T21:56:20.616Z,115.50
2018-11-04T21:58:48.013Z,104.07
2018-11-04T22:01:15.528Z,100.73
2018-11-04T22:03:43.294Z,105.97
2018-11-04T22:06:10.711Z,101.40
2018-11-04T22:08:38.292Z,110.80
2018-11-04T22:11:05.841Z,104.80
2018-11-04T22:13:33.396Z,105.23
2018-11-04T22:16:00.944Z,110.57
2018-11-04T22:18:28.444Z,101.27
2018-11-04T22:20:56.114Z,99.40
2018-11-04T22:23:23.652Z,100.17
2018-11-04T22:25:51.202Z,100.20
2018-11-04T22:28:18.719Z,103.60
2018-11-04T22:30:46.221Z,105.37
2018-11-04T22:33:13.721Z,106.47
2018-11-04T22:35:41.224Z,94.70
2018-11-04T22:38:08.745Z,95.67
2018-11-04T22:40:36.254Z,96.17
2018-11-04T22:43:03.844Z,100.53
2018-11-04T22:45:31.313Z,101.90
2018-11-04T22:47:58.820Z,97.20
2018-11-04T22:50:26.357Z,98.17
2018-11-04T22:52:53.868Z,90.63
2018-11-04T22:55:21.438Z,86.63
2018-11-04T22:57:48.905Z,88.07
2018-11-04T23:00:22.136Z,86.80
2018-11-04T23:02:50.279Z,87.40
2018-11-04T23:05:23.373Z,86.50
2018-11-04T23:07:51.120Z,87.40
2018-11-04T23:10:18.640Z,85.83
2018-11-04T23:12:46.245Z,91.00
2018-11-04T23:15:14.006Z,83.57
2018-11-04T23:17:41.607Z,79.70
2018-11-04T23:20:09.145Z,79.43
2018-11-04T23:22:37.110Z,85.70
2018-11-04T23:25:06.082Z,76.40
2018-11-04T23:27:33.609Z,78.10
2018-11-04T23:30:01.127Z,75.20
2018-11-04T23:32:28.623Z,68.87
2018-11-04T23:34:56.162Z,73.07
2018-11-04T23:37:23.671Z,73.27
2018-11-04T23:39:51.127Z,72.20
2018-11-04T23:42:18.660Z,70.17
2018-11-04T23:44:46.227Z,66.07
2018-11-04T23:47:13.792Z,67.70
2018-11-04T23:49:41.302Z,67.30
2018-11-04T23:52:08.926Z,64.47
2018-11-04T23:54:36.412Z,67.53
2018-11-04T23:57:04.017Z,65.10
2018-11-04T23:59:31.583Z,64.13
